sensor_id;sensor_type;location;lat;lon;timestamp;temperature;humidity
47336;DHT22;33068;51.990;5.926;2022-10-30T00:00:31;14.00;99.90
47336;DHT22;33068;51.990;5.926;2022-10-30T00:02:59;14.00;99.90
47336;DHT22;33068;51.990;5.926;2022-10-30T00:05:26;14.00;99.90
47336;DHT22;33068;51.990;5.926;2022-10-30T00:07:54;14.00;99.90
47336;DHT22;33068;51.990;5.926;2022-10-30T00:10:23;13.90;99.90
47336;DHT22;33068;51.990;5.926;2022-10-30T00:12:50;13.90;99.90
47336;DHT22;33068;51.990;5.926;2022-10-30T00:15:18;13.90;99.90
47336;DHT22;33068;51.990;5.926;2022-10-30T00:17:44;13.90;99.90
47336;DHT22;33068;51.990;5.926;2022-10-30T00:20:11;13.80;99.90
47336;DHT22;33068;51.990;5.926;2022-10-30T00:22:38;13.80;99.90
47336;DHT22;33068;51.990;5.926;2022-10-30T00:25:06;13.80;99.90
47336;DHT22;33068;51.990;5.926;2022-10-30T00:27:34;13.70;99.90
47336;DHT22;33068;51.990;5.926;2022-10-30T00:30:02;13.80;99.90
47336;DHT22;33068;51.990;5.926;2022-10-30T00:32:29;13.80;99.90
47336;DHT22;33068;51.990;5.926;2022-10-30T00:34:56;13.70;99.90
47336;DHT22;33068;51.990;5.926;2022-10-30T00:37:23;13.70;99.90
47336;DHT22;33068;51.990;5.926;2022-10-30T00:39:50;13.60;99.90
47336;DHT22;33068;51.990;5.926;2022-10-30T00:42:17;13.70;99.90
47336;DHT22;33068;51.990;5.926;2022-10-30T00:44:47;13.70;99.90
47336;DHT22;33068;51.990;5.926;2022-10-30T00:47:18;13.70;99.90
47336;DHT22;33068;51.990;5.926;2022-10-30T00:49:52;13.60;99.90
47336;DHT22;33068;51.990;5.926;2022-10-30T00:52:23;13.50;99.90
47336;DHT22;33068;51.990;5.926;2022-10-30T00:54:51;13.50;99.90
47336;DHT22;33068;51.990;5.926;2022-10-30T00:57:19;13.50;99.90
47336;DHT22;33068;51.990;5.926;2022-10-30T00:59:48;13.40;99.90
47336;DHT22;33068;51.990;5.926;2022-10-30T01:02:16;13.50;99.90
47336;DHT22;33068;51.990;5.926;2022-10-30T01:04:44;13.40;99.90
47336;DHT22;33068;51.990;5.926;2022-10-30T01:07:14;13.50;99.90
47336;DHT22;33068;51.990;5.926;2022-10-30T01:09:41;13.40;99.90
47336;DHT22;33068;51.990;5.926;2022-10-30T01:12:09;13.40;99.90
47336;DHT22;33068;51.990;5.926;2022-10-30T01:14:40;13.30;99.90
47336;DHT22;33068;51.990;5.926;2022-10-30T01:17:36;13.40;99.90
47336;DHT22;33068;51.990;5.926;2022-10-30T01:20:22;13.30;99.90
47336;DHT22;33068;51.990;5.926;2022-10-30T01:23:01;13.30;99.90
47336;DHT22;33068;51.990;5.926;2022-10-30T01:25:41;13.30;99.90
47336;DHT22;33068;51.990;5.926;2022-10-30T01:28:22;13.20;99.90
47336;DHT22;33068;51.990;5.926;2022-10-30T01:31:02;13.20;99.90
47336;DHT22;33068;51.990;5.926;2022-10-30T01:33:48;13.00;99.90
47336;DHT22;33068;51.990;5.926;2022-10-30T01:36:21;13.00;99.90
47336;DHT22;33068;51.990;5.926;2022-10-30T01:38:53;13.00;99.90
47336;DHT22;33068;51.990;5.926;2022-10-30T01:41:21;12.90;99.90
47336;DHT22;33068;51.990;5.926;2022-10-30T01:43:52;12.90;99.90
47336;DHT22;33068;51.990;5.926;2022-10-30T01:46:32;12.90;99.90
47336;DHT22;33068;51.990;5.926;2022-10-30T01:49:11;12.90;99.90
47336;DHT22;33068;51.990;5.926;2022-10-30T01:51:50;12.90;99.90
47336;DHT22;33068;51.990;5.926;2022-10-30T01:54:26;12.80;99.90
47336;DHT22;33068;51.990;5.926;2022-10-30T01:57:03;12.70;99.90
47336;DHT22;33068;51.990;5.926;2022-10-30T01:59:37;12.80;99.90
47336;DHT22;33068;51.990;5.926;2022-10-30T02:02:07;12.70;99.90
47336;DHT22;33068;51.990;5.926;2022-10-30T02:04:36;12.70;99.90
47336;DHT22;33068;51.990;5.926;2022-10-30T02:07:03;12.60;99.90
47336;DHT22;33068;51.990;5.926;2022-10-30T02:09:37;12.60;99.90
47336;DHT22;33068;51.990;5.926;2022-10-30T02:12:06;12.60;99.90
47336;DHT22;33068;51.990;5.926;2022-10-30T02:14:37;12.60;99.90
47336;DHT22;33068;51.990;5.926;2022-10-30T02:17:07;12.50;99.90
47336;DHT22;33068;51.990;5.926;2022-10-30T02:19:37;12.50;99.90
47336;DHT22;33068;51.990;5.926;2022-10-30T02:22:06;12.50;99.90
47336;DHT22;33068;51.990;5.926;2022-10-30T02:24:33;12.50;99.90
47336;DHT22;33068;51.990;5.926;2022-10-30T02:27:00;12.40;99.90
47336;DHT22;33068;51.990;5.926;2022-10-30T02:29:27;12.40;99.90
47336;DHT22;33068;51.990;5.926;2022-10-30T02:31:54;12.40;99.90
47336;DHT22;33068;51.990;5.926;2022-10-30T02:34:21;12.40;99.90
47336;DHT22;33068;51.990;5.926;2022-10-30T02:36:48;12.30;99.90
47336;DHT22;33068;51.990;5.926;2022-10-30T02:39:18;12.30;99.90
47336;DHT22;33068;51.990;5.926;2022-10-30T02:41:46;12.20;99.90
47336;DHT22;33068;51.990;5.926;2022-10-30T02:44:13;12.20;99.90
47336;DHT22;33068;51.990;5.926;2022-10-30T02:46:40;12.40;99.90
47336;DHT22;33068;51.990;5.926;2022-10-30T02:49:07;12.20;99.90
47336;DHT22;33068;51.990;5.926;2022-10-30T02:51:34;12.20;99.90
47336;DHT22;33068;51.990;5.926;2022-10-30T02:54:01;12.20;99.90
47336;DHT22;33068;51.990;5.926;2022-10-30T02:56:31;12.20;99.90
47336;DHT22;33068;51.990;5.926;2022-10-30T02:58:59;12.10;99.90
47336;DHT22;33068;51.990;5.926;2022-10-30T03:01:26;12.10;99.90
47336;DHT22;33068;51.990;5.926;2022-10-30T03:03:56;12.10;99.90
47336;DHT22;33068;51.990;5.926;2022-10-30T03:06:23;12.00;99.90
47336;DHT22;33068;51.990;5.926;2022-10-30T03:08:50;12.00;99.90
47336;DHT22;33068;51.990;5.926;2022-10-30T03:11:18;12.10;99.90
47336;DHT22;33068;51.990;5.926;2022-10-30T03:13:47;12.00;99.90
47336;DHT22;33068;51.990;5.926;2022-10-30T03:16:17;12.00;99.90
47336;DHT22;33068;51.990;5.926;2022-10-30T03:18:45;12.00;99.90
47336;DHT22;33068;51.990;5.926;2022-10-30T03:21:14;11.90;99.90
47336;DHT22;33068;51.990;5.926;2022-10-30T03:23:43;12.00;99.90
47336;DHT22;33068;51.990;5.926;2022-10-30T03:26:11;12.20;99.90
47336;DHT22;33068;51.990;5.926;2022-10-30T03:28:50;11.90;99.90
47336;DHT22;33068;51.990;5.926;2022-10-30T03:31:18;11.90;99.90
47336;DHT22;33068;51.990;5.926;2022-10-30T03:33:50;11.90;99.90
47336;DHT22;33068;51.990;5.926;2022-10-30T03:36:17;11.90;99.90
47336;DHT22;33068;51.990;5.926;2022-10-30T03:38:44;11.80;99.90
47336;DHT22;33068;51.990;5.926;2022-10-30T03:41:15;11.80;99.90
47336;DHT22;33068;51.990;5.926;2022-10-30T03:43:43;11.70;99.90
47336;DHT22;33068;51.990;5.926;2022-10-30T03:46:11;11.80;99.90
47336;DHT22;33068;51.990;5.926;2022-10-30T03:48:39;11.70;99.90
47336;DHT22;33068;51.990;5.926;2022-10-30T03:51:07;11.80;99.90
47336;DHT22;33068;51.990;5.926;2022-10-30T03:53:35;11.80;99.90
47336;DHT22;33068;51.990;5.926;2022-10-30T03:56:03;11.90;99.90
47336;DHT22;33068;51.990;5.926;2022-10-30T03:58:43;11.80;99.90
47336;DHT22;33068;51.990;5.926;2022-10-30T04:01:13;11.90;99.90
47336;DHT22;33068;51.990;5.926;2022-10-30T04:03:45;11.80;99.90
47336;DHT22;33068;51.990;5.926;2022-10-30T04:06:12;11.70;99.90
47336;DHT22;33068;51.990;5.926;2022-10-30T04:08:39;11.80;99.90
47336;DHT22;33068;51.990;5.926;2022-10-30T04:11:08;11.70;99.90
47336;DHT22;33068;51.990;5.926;2022-10-30T04:13:37;11.70;99.90
47336;DHT22;33068;51.990;5.926;2022-10-30T04:16:05;11.70;99.90
47336;DHT22;33068;51.990;5.926;2022-10-30T04:18:34;11.80;99.90
47336;DHT22;33068;51.990;5.926;2022-10-30T04:21:01;11.80;99.90
47336;DHT22;33068;51.990;5.926;2022-10-30T04:23:28;11.80;99.90
47336;DHT22;33068;51.990;5.926;2022-10-30T04:25:55;11.80;99.90
47336;DHT22;33068;51.990;5.926;2022-10-30T04:28:22;11.70;99.90
47336;DHT22;33068;51.990;5.926;2022-10-30T04:30:49;12.00;99.90
47336;DHT22;33068;51.990;5.926;2022-10-30T04:33:17;11.70;99.90
47336;DHT22;33068;51.990;5.926;2022-10-30T04:35:46;11.70;99.90
47336;DHT22;33068;51.990;5.926;2022-10-30T04:38:16;11.60;99.90
47336;DHT22;33068;51.990;5.926;2022-10-30T04:40:44;11.80;99.90
47336;DHT22;33068;51.990;5.926;2022-10-30T04:43:13;11.60;99.90
47336;DHT22;33068;51.990;5.926;2022-10-30T04:45:41;11.50;99.90
47336;DHT22;33068;51.990;5.926;2022-10-30T04:48:11;11.50;99.90
47336;DHT22;33068;51.990;5.926;2022-10-30T04:50:38;11.50;99.90
47336;DHT22;33068;51.990;5.926;2022-10-30T04:53:10;11.50;99.90
47336;DHT22;33068;51.990;5.926;2022-10-30T04:55:38;11.50;99.90
47336;DHT22;33068;51.990;5.926;2022-10-30T04:58:05;11.40;99.90
47336;DHT22;33068;51.990;5.926;2022-10-30T05:00:36;11.40;99.90
47336;DHT22;33068;51.990;5.926;2022-10-30T05:03:15;11.40;99.90
47336;DHT22;33068;51.990;5.926;2022-10-30T05:05:44;11.30;99.90
47336;DHT22;33068;51.990;5.926;2022-10-30T05:08:12;11.30;99.90
47336;DHT22;33068;51.990;5.926;2022-10-30T05:10:40;11.30;99.90
47336;DHT22;33068;51.990;5.926;2022-10-30T05:13:09;11.20;99.90
47336;DHT22;33068;51.990;5.926;2022-10-30T05:15:36;11.30;99.90
47336;DHT22;33068;51.990;5.926;2022-10-30T05:18:03;11.30;99.90
47336;DHT22;33068;51.990;5.926;2022-10-30T05:20:31;11.30;99.90
47336;DHT22;33068;51.990;5.926;2022-10-30T05:22:58;11.20;99.90
47336;DHT22;33068;51.990;5.926;2022-10-30T05:25:27;11.20;99.90
47336;DHT22;33068;51.990;5.926;2022-10-30T05:27:58;11.20;99.90
47336;DHT22;33068;51.990;5.926;2022-10-30T05:30:25;11.20;99.90
47336;DHT22;33068;51.990;5.926;2022-10-30T05:32:56;11.20;99.90
47336;DHT22;33068;51.990;5.926;2022-10-30T05:35:24;11.40;99.90
47336;DHT22;33068;51.990;5.926;2022-10-30T05:37:51;11.50;99.90
47336;DHT22;33068;51.990;5.926;2022-10-30T05:40:18;11.70;99.90
47336;DHT22;33068;51.990;5.926;2022-10-30T05:42:47;11.70;99.90
47336;DHT22;33068;51.990;5.926;2022-10-30T05:45:16;11.70;99.90
47336;DHT22;33068;51.990;5.926;2022-10-30T05:47:48;11.60;99.90
47336;DHT22;33068;51.990;5.926;2022-10-30T05:50:19;11.50;99.90
47336;DHT22;33068;51.990;5.926;2022-10-30T05:52:55;11.50;99.90
47336;DHT22;33068;51.990;5.926;2022-10-30T05:55:23;11.50;99.90
47336;DHT22;33068;51.990;5.926;2022-10-30T05:58:09;11.40;99.90
47336;DHT22;33068;51.990;5.926;2022-10-30T06:00:39;11.30;99.90
47336;DHT22;33068;51.990;5.926;2022-10-30T06:03:10;11.20;99.90
47336;DHT22;33068;51.990;5.926;2022-10-30T06:05:39;11.20;99.90
47336;DHT22;33068;51.990;5.926;2022-10-30T06:08:07;11.20;99.90
47336;DHT22;33068;51.990;5.926;2022-10-30T06:10:34;11.20;99.90
47336;DHT22;33068;51.990;5.926;2022-10-30T06:13:09;11.10;99.90
47336;DHT22;33068;51.990;5.926;2022-10-30T06:15:56;11.10;99.90
47336;DHT22;33068;51.990;5.926;2022-10-30T06:18:25;11.10;99.90
47336;DHT22;33068;51.990;5.926;2022-10-30T06:20:53;11.10;99.90
47336;DHT22;33068;51.990;5.926;2022-10-30T06:23:23;11.10;99.90
47336;DHT22;33068;51.990;5.926;2022-10-30T06:25:56;11.10;99.90
47336;DHT22;33068;51.990;5.926;2022-10-30T06:28:36;11.10;99.90
47336;DHT22;33068;51.990;5.926;2022-10-30T06:31:03;11.00;99.90
47336;DHT22;33068;51.990;5.926;2022-10-30T06:33:31;11.00;99.90
47336;DHT22;33068;51.990;5.926;2022-10-30T06:35:59;11.00;99.90
47336;DHT22;33068;51.990;5.926;2022-10-30T06:38:27;11.00;99.90
47336;DHT22;33068;51.990;5.926;2022-10-30T06:40:54;11.00;99.90
47336;DHT22;33068;51.990;5.926;2022-10-30T06:43:42;11.00;99.90
47336;DHT22;33068;51.990;5.926;2022-10-30T06:46:15;11.10;99.90
47336;DHT22;33068;51.990;5.926;2022-10-30T06:48:43;11.00;99.90
47336;DHT22;33068;51.990;5.926;2022-10-30T06:51:13;11.00;99.90
47336;DHT22;33068;51.990;5.926;2022-10-30T06:53:41;11.00;99.90
47336;DHT22;33068;51.990;5.926;2022-10-30T06:56:40;11.00;99.90
47336;DHT22;33068;51.990;5.926;2022-10-30T06:59:09;11.00;99.90
47336;DHT22;33068;51.990;5.926;2022-10-30T07:02:05;11.00;99.90
47336;DHT22;33068;51.990;5.926;2022-10-30T07:04:54;11.00;99.90
47336;DHT22;33068;51.990;5.926;2022-10-30T07:07:21;11.10;99.90
47336;DHT22;33068;51.990;5.926;2022-10-30T07:09:48;11.20;99.90
47336;DHT22;33068;51.990;5.926;2022-10-30T07:12:21;11.40;99.90
47336;DHT22;33068;51.990;5.926;2022-10-30T07:15:00;11.50;99.90
47336;DHT22;33068;51.990;5.926;2022-10-30T07:17:52;11.50;99.90
47336;DHT22;33068;51.990;5.926;2022-10-30T07:20:22;11.60;99.90
47336;DHT22;33068;51.990;5.926;2022-10-30T07:22:49;11.60;99.90
47336;DHT22;33068;51.990;5.926;2022-10-30T07:25:17;11.60;99.90
47336;DHT22;33068;51.990;5.926;2022-10-30T07:28:16;11.60;99.90
47336;DHT22;33068;51.990;5.926;2022-10-30T07:30:57;11.50;99.90
47336;DHT22;33068;51.990;5.926;2022-10-30T07:33:44;11.50;99.90
47336;DHT22;33068;51.990;5.926;2022-10-30T07:36:33;11.60;99.90
47336;DHT22;33068;51.990;5.926;2022-10-30T07:39:20;11.70;99.90
47336;DHT22;33068;51.990;5.926;2022-10-30T07:41:56;11.70;99.90
47336;DHT22;33068;51.990;5.926;2022-10-30T07:44:52;11.80;99.90
47336;DHT22;33068;51.990;5.926;2022-10-30T07:47:32;11.90;99.90
47336;DHT22;33068;51.990;5.926;2022-10-30T07:50:12;11.90;99.90
47336;DHT22;33068;51.990;5.926;2022-10-30T07:52:39;12.10;99.90
47336;DHT22;33068;51.990;5.926;2022-10-30T07:55:08;12.10;99.90
47336;DHT22;33068;51.990;5.926;2022-10-30T07:57:47;12.10;99.90
47336;DHT22;33068;51.990;5.926;2022-10-30T08:00:33;12.10;99.90
47336;DHT22;33068;51.990;5.926;2022-10-30T08:03:18;12.20;99.90
47336;DHT22;33068;51.990;5.926;2022-10-30T08:05:54;12.20;99.90
47336;DHT22;33068;51.990;5.926;2022-10-30T08:08:33;12.30;99.90
47336;DHT22;33068;51.990;5.926;2022-10-30T08:11:20;12.30;99.90
47336;DHT22;33068;51.990;5.926;2022-10-30T08:13:47;12.40;99.90
47336;DHT22;33068;51.990;5.926;2022-10-30T08:16:16;12.40;99.90
47336;DHT22;33068;51.990;5.926;2022-10-30T08:18:45;12.40;99.90
47336;DHT22;33068;51.990;5.926;2022-10-30T08:21:12;12.50;99.90
47336;DHT22;33068;51.990;5.926;2022-10-30T08:23:50;12.50;99.90
47336;DHT22;33068;51.990;5.926;2022-10-30T08:26:19;12.50;99.90
47336;DHT22;33068;51.990;5.926;2022-10-30T08:28:46;12.60;99.90
47336;DHT22;33068;51.990;5.926;2022-10-30T08:31:14;12.60;99.90
47336;DHT22;33068;51.990;5.926;2022-10-30T08:34:15;12.70;99.90
47336;DHT22;33068;51.990;5.926;2022-10-30T08:36:47;12.80;99.90
47336;DHT22;33068;51.990;5.926;2022-10-30T08:39:14;12.90;99.90
47336;DHT22;33068;51.990;5.926;2022-10-30T08:41:52;13.00;99.90
47336;DHT22;33068;51.990;5.926;2022-10-30T08:44:20;13.00;99.90
47336;DHT22;33068;51.990;5.926;2022-10-30T08:47:06;13.00;99.90
47336;DHT22;33068;51.990;5.926;2022-10-30T08:49:34;13.10;99.90
47336;DHT22;33068;51.990;5.926;2022-10-30T08:52:02;13.10;99.90
47336;DHT22;33068;51.990;5.926;2022-10-30T08:54:29;13.20;99.90
47336;DHT22;33068;51.990;5.926;2022-10-30T08:56:56;13.30;99.90
47336;DHT22;33068;51.990;5.926;2022-10-30T08:59:23;13.40;99.90
47336;DHT22;33068;51.990;5.926;2022-10-30T09:01:53;13.50;99.90
47336;DHT22;33068;51.990;5.926;2022-10-30T09:04:20;13.50;99.90
47336;DHT22;33068;51.990;5.926;2022-10-30T09:07:18;13.70;99.90
47336;DHT22;33068;51.990;5.926;2022-10-30T09:10:04;13.80;99.90
47336;DHT22;33068;51.990;5.926;2022-10-30T09:12:33;13.90;99.90
47336;DHT22;33068;51.990;5.926;2022-10-30T09:15:01;14.00;99.90
47336;DHT22;33068;51.990;5.926;2022-10-30T09:17:31;14.10;99.90
47336;DHT22;33068;51.990;5.926;2022-10-30T09:19:58;14.30;99.90
47336;DHT22;33068;51.990;5.926;2022-10-30T09:22:39;14.50;99.90
47336;DHT22;33068;51.990;5.926;2022-10-30T09:25:07;14.70;99.90
47336;DHT22;33068;51.990;5.926;2022-10-30T09:27:45;15.00;99.90
47336;DHT22;33068;51.990;5.926;2022-10-30T09:30:13;15.20;99.90
47336;DHT22;33068;51.990;5.926;2022-10-30T09:32:53;15.40;99.90
47336;DHT22;33068;51.990;5.926;2022-10-30T09:35:22;15.60;99.90
47336;DHT22;33068;51.990;5.926;2022-10-30T09:37:50;15.80;99.90
47336;DHT22;33068;51.990;5.926;2022-10-30T09:40:22;15.90;99.90
47336;DHT22;33068;51.990;5.926;2022-10-30T09:42:51;16.00;99.90
47336;DHT22;33068;51.990;5.926;2022-10-30T09:48:40;16.40;99.90
47336;DHT22;33068;51.990;5.926;2022-10-30T09:51:33;16.50;99.90
47336;DHT22;33068;51.990;5.926;2022-10-30T09:54:14;16.60;99.90
47336;DHT22;33068;51.990;5.926;2022-10-30T09:56:51;16.80;99.90
47336;DHT22;33068;51.990;5.926;2022-10-30T09:59:28;17.00;99.90
47336;DHT22;33068;51.990;5.926;2022-10-30T10:02:01;17.10;99.90
47336;DHT22;33068;51.990;5.926;2022-10-30T10:04:37;17.20;99.90
47336;DHT22;33068;51.990;5.926;2022-10-30T10:07:29;17.40;99.90
47336;DHT22;33068;51.990;5.926;2022-10-30T10:10:22;17.50;99.90
47336;DHT22;33068;51.990;5.926;2022-10-30T10:12:54;17.70;99.90
47336;DHT22;33068;51.990;5.926;2022-10-30T10:15:31;17.70;99.90
47336;DHT22;33068;51.990;5.926;2022-10-30T10:18:01;17.70;99.90
47336;DHT22;33068;51.990;5.926;2022-10-30T10:20:36;17.60;99.90
47336;DHT22;33068;51.990;5.926;2022-10-30T10:23:13;17.50;99.90
47336;DHT22;33068;51.990;5.926;2022-10-30T10:25:50;17.50;99.90
47336;DHT22;33068;51.990;5.926;2022-10-30T10:28:39;17.70;99.90
47336;DHT22;33068;51.990;5.926;2022-10-30T10:31:17;18.30;99.90
47336;DHT22;33068;51.990;5.926;2022-10-30T10:33:55;18.40;99.90
47336;DHT22;33068;51.990;5.926;2022-10-30T10:36:32;18.80;99.90
47336;DHT22;33068;51.990;5.926;2022-10-30T10:39:12;19.00;99.90
47336;DHT22;33068;51.990;5.926;2022-10-30T10:42:01;18.80;99.90
47336;DHT22;33068;51.990;5.926;2022-10-30T10:44:38;18.80;99.90
47336;DHT22;33068;51.990;5.926;2022-10-30T10:47:25;18.60;99.90
47336;DHT22;33068;51.990;5.926;2022-10-30T10:50:09;18.50;99.90
47336;DHT22;33068;51.990;5.926;2022-10-30T10:52:42;18.50;99.90
47336;DHT22;33068;51.990;5.926;2022-10-30T10:55:15;18.40;99.90
47336;DHT22;33068;51.990;5.926;2022-10-30T10:57:44;18.60;99.90
47336;DHT22;33068;51.990;5.926;2022-10-30T11:00:17;18.60;99.90
47336;DHT22;33068;51.990;5.926;2022-10-30T11:02:50;18.60;99.90
47336;DHT22;33068;51.990;5.926;2022-10-30T11:05:23;18.70;99.90
47336;DHT22;33068;51.990;5.926;2022-10-30T11:07:53;18.80;99.90
47336;DHT22;33068;51.990;5.926;2022-10-30T11:10:22;18.90;99.90
47336;DHT22;33068;51.990;5.926;2022-10-30T11:12:52;19.00;99.90
47336;DHT22;33068;51.990;5.926;2022-10-30T11:15:32;19.20;99.90
47336;DHT22;33068;51.990;5.926;2022-10-30T11:18:03;19.40;99.90
47336;DHT22;33068;51.990;5.926;2022-10-30T11:20:37;19.70;99.90
47336;DHT22;33068;51.990;5.926;2022-10-30T11:23:34;20.00;99.90
47336;DHT22;33068;51.990;5.926;2022-10-30T11:26:04;20.00;99.90
47336;DHT22;33068;51.990;5.926;2022-10-30T11:28:52;19.90;99.90
47336;DHT22;33068;51.990;5.926;2022-10-30T11:31:21;19.80;99.90
47336;DHT22;33068;51.990;5.926;2022-10-30T11:33:49;19.90;99.90
47336;DHT22;33068;51.990;5.926;2022-10-30T11:36:18;19.90;99.90
47336;DHT22;33068;51.990;5.926;2022-10-30T11:38:47;20.00;99.90
47336;DHT22;33068;51.990;5.926;2022-10-30T11:41:15;20.10;99.90
47336;DHT22;33068;51.990;5.926;2022-10-30T11:43:43;20.30;99.90
47336;DHT22;33068;51.990;5.926;2022-10-30T11:46:19;20.40;99.90
47336;DHT22;33068;51.990;5.926;2022-10-30T11:48:47;20.50;99.90
47336;DHT22;33068;51.990;5.926;2022-10-30T11:51:31;20.30;99.90
47336;DHT22;33068;51.990;5.926;2022-10-30T11:54:00;20.40;99.90
47336;DHT22;33068;51.990;5.926;2022-10-30T11:56:29;20.20;99.90
47336;DHT22;33068;51.990;5.926;2022-10-30T11:58:58;20.20;99.90
47336;DHT22;33068;51.990;5.926;2022-10-30T12:01:29;20.30;99.90
47336;DHT22;33068;51.990;5.926;2022-10-30T12:04:12;20.30;99.90
47336;DHT22;33068;51.990;5.926;2022-10-30T12:06:40;20.50;99.90
47336;DHT22;33068;51.990;5.926;2022-10-30T12:09:10;20.60;99.90
47336;DHT22;33068;51.990;5.926;2022-10-30T12:11:39;20.60;99.90
47336;DHT22;33068;51.990;5.926;2022-10-30T12:14:15;20.60;99.90
47336;DHT22;33068;51.990;5.926;2022-10-30T12:16:46;20.60;99.90
47336;DHT22;33068;51.990;5.926;2022-10-30T12:19:15;20.60;99.90
47336;DHT22;33068;51.990;5.926;2022-10-30T12:21:45;20.70;99.90
47336;DHT22;33068;51.990;5.926;2022-10-30T12:24:17;20.60;99.90
47336;DHT22;33068;51.990;5.926;2022-10-30T12:26:46;20.70;99.90
47336;DHT22;33068;51.990;5.926;2022-10-30T12:29:16;20.80;99.90
47336;DHT22;33068;51.990;5.926;2022-10-30T12:31:51;20.80;99.90
47336;DHT22;33068;51.990;5.926;2022-10-30T12:34:28;20.80;99.90
47336;DHT22;33068;51.990;5.926;2022-10-30T12:37:05;20.80;99.90
47336;DHT22;33068;51.990;5.926;2022-10-30T12:39:48;20.80;99.90
47336;DHT22;33068;51.990;5.926;2022-10-30T12:42:18;20.70;99.90
47336;DHT22;33068;51.990;5.926;2022-10-30T12:44:51;20.70;99.90
47336;DHT22;33068;51.990;5.926;2022-10-30T12:47:24;20.70;99.90
47336;DHT22;33068;51.990;5.926;2022-10-30T12:49:57;20.80;99.90
47336;DHT22;33068;51.990;5.926;2022-10-30T12:52:32;20.80;99.90
47336;DHT22;33068;51.990;5.926;2022-10-30T12:55:04;20.60;99.90
47336;DHT22;33068;51.990;5.926;2022-10-30T12:57:37;20.50;99.90
47336;DHT22;33068;51.990;5.926;2022-10-30T13:00:11;20.40;99.90
47336;DHT22;33068;51.990;5.926;2022-10-30T13:02:48;20.40;99.90
47336;DHT22;33068;51.990;5.926;2022-10-30T13:05:23;20.20;99.90
47336;DHT22;33068;51.990;5.926;2022-10-30T13:08:00;20.10;99.90
47336;DHT22;33068;51.990;5.926;2022-10-30T13:10:31;20.10;99.90
47336;DHT22;33068;51.990;5.926;2022-10-30T13:13:04;20.10;99.90
47336;DHT22;33068;51.990;5.926;2022-10-30T13:15:37;20.00;99.90
47336;DHT22;33068;51.990;5.926;2022-10-30T13:18:13;20.00;99.90
47336;DHT22;33068;51.990;5.926;2022-10-30T13:20:47;19.80;99.90
47336;DHT22;33068;51.990;5.926;2022-10-30T13:23:20;19.80;99.90
47336;DHT22;33068;51.990;5.926;2022-10-30T13:25:59;19.70;99.90
47336;DHT22;33068;51.990;5.926;2022-10-30T13:28:33;19.70;99.90
47336;DHT22;33068;51.990;5.926;2022-10-30T13:31:17;19.70;99.90
47336;DHT22;33068;51.990;5.926;2022-10-30T13:33:55;19.80;99.90
47336;DHT22;33068;51.990;5.926;2022-10-30T13:36:31;20.00;99.90
47336;DHT22;33068;51.990;5.926;2022-10-30T13:39:06;20.20;99.90
47336;DHT22;33068;51.990;5.926;2022-10-30T13:41:41;20.40;99.90
47336;DHT22;33068;51.990;5.926;2022-10-30T13:44:20;20.40;99.90
47336;DHT22;33068;51.990;5.926;2022-10-30T13:47:07;20.30;99.90
47336;DHT22;33068;51.990;5.926;2022-10-30T13:49:53;20.20;99.90
47336;DHT22;33068;51.990;5.926;2022-10-30T13:52:22;20.10;99.90
47336;DHT22;33068;51.990;5.926;2022-10-30T13:54:54;20.10;99.90
47336;DHT22;33068;51.990;5.926;2022-10-30T13:57:26;20.00;99.90
47336;DHT22;33068;51.990;5.926;2022-10-30T14:00:02;20.00;99.90
47336;DHT22;33068;51.990;5.926;2022-10-30T14:03:01;20.00;99.90
47336;DHT22;33068;51.990;5.926;2022-10-30T14:05:35;19.90;99.90
47336;DHT22;33068;51.990;5.926;2022-10-30T14:08:09;19.80;99.90
47336;DHT22;33068;51.990;5.926;2022-10-30T14:10:47;19.60;99.90
47336;DHT22;33068;51.990;5.926;2022-10-30T14:13:21;19.60;99.90
47336;DHT22;33068;51.990;5.926;2022-10-30T14:15:54;19.50;99.90
47336;DHT22;33068;51.990;5.926;2022-10-30T14:18:29;19.40;99.90
47336;DHT22;33068;51.990;5.926;2022-10-30T14:20:58;19.30;99.90
47336;DHT22;33068;51.990;5.926;2022-10-30T14:23:45;19.20;99.90
47336;DHT22;33068;51.990;5.926;2022-10-30T14:26:15;19.10;99.90
47336;DHT22;33068;51.990;5.926;2022-10-30T14:28:45;19.10;99.90
47336;DHT22;33068;51.990;5.926;2022-10-30T14:31:14;19.10;99.90
47336;DHT22;33068;51.990;5.926;2022-10-30T14:33:45;19.00;99.90
47336;DHT22;33068;51.990;5.926;2022-10-30T14:36:16;19.00;99.90
47336;DHT22;33068;51.990;5.926;2022-10-30T14:38:52;18.90;99.90
47336;DHT22;33068;51.990;5.926;2022-10-30T14:41:43;18.90;99.90
47336;DHT22;33068;51.990;5.926;2022-10-30T14:44:42;18.90;99.90
47336;DHT22;33068;51.990;5.926;2022-10-30T14:47:35;18.90;99.90
47336;DHT22;33068;51.990;5.926;2022-10-30T14:50:13;18.90;99.90
47336;DHT22;33068;51.990;5.926;2022-10-30T14:52:54;18.90;99.90
47336;DHT22;33068;51.990;5.926;2022-10-30T14:55:29;18.90;99.90
47336;DHT22;33068;51.990;5.926;2022-10-30T14:58:16;18.90;99.90
47336;DHT22;33068;51.990;5.926;2022-10-30T15:00:45;18.90;99.90
47336;DHT22;33068;51.990;5.926;2022-10-30T15:03:23;18.90;99.90
47336;DHT22;33068;51.990;5.926;2022-10-30T15:05:57;18.90;99.90
47336;DHT22;33068;51.990;5.926;2022-10-30T15:08:59;18.90;99.90
47336;DHT22;33068;51.990;5.926;2022-10-30T15:11:53;19.00;99.90
47336;DHT22;33068;51.990;5.926;2022-10-30T15:14:26;19.00;99.90
47336;DHT22;33068;51.990;5.926;2022-10-30T15:16:54;19.00;99.90
47336;DHT22;33068;51.990;5.926;2022-10-30T15:19:22;18.90;99.90
47336;DHT22;33068;51.990;5.926;2022-10-30T15:21:52;18.90;99.90
47336;DHT22;33068;51.990;5.926;2022-10-30T15:24:23;18.90;99.90
47336;DHT22;33068;51.990;5.926;2022-10-30T15:26:53;18.80;99.90
47336;DHT22;33068;51.990;5.926;2022-10-30T15:29:23;18.70;99.90
47336;DHT22;33068;51.990;5.926;2022-10-30T15:32:01;18.60;99.90
47336;DHT22;33068;51.990;5.926;2022-10-30T15:34:29;18.50;99.90
47336;DHT22;33068;51.990;5.926;2022-10-30T15:36:57;18.30;99.90
47336;DHT22;33068;51.990;5.926;2022-10-30T15:39:26;18.20;99.90
47336;DHT22;33068;51.990;5.926;2022-10-30T15:41:55;18.10;99.90
47336;DHT22;33068;51.990;5.926;2022-10-30T15:44:24;18.00;99.90
47336;DHT22;33068;51.990;5.926;2022-10-30T15:46:55;17.90;99.90
47336;DHT22;33068;51.990;5.926;2022-10-30T15:49:28;17.90;99.90
47336;DHT22;33068;51.990;5.926;2022-10-30T15:51:56;17.80;99.90
47336;DHT22;33068;51.990;5.926;2022-10-30T15:54:26;17.80;99.90
47336;DHT22;33068;51.990;5.926;2022-10-30T15:56:57;17.70;99.90
47336;DHT22;33068;51.990;5.926;2022-10-30T15:59:26;17.60;99.90
47336;DHT22;33068;51.990;5.926;2022-10-30T16:01:55;17.50;99.90
47336;DHT22;33068;51.990;5.926;2022-10-30T16:04:23;17.50;99.90
47336;DHT22;33068;51.990;5.926;2022-10-30T16:06:52;17.40;99.90
47336;DHT22;33068;51.990;5.926;2022-10-30T16:09:20;17.30;99.90